Time;durP1;ratioP1;P1;durP2;ratioP2;P2;SDS_P1;SDS_P2;PMS_P1;PMS_P2;Temp;Humidity;BMP_temperature;BMP_pressure;BME280_temperature;BME280_humidity;BME280_pressure;Samples;Min_cycle;Max_cycle;Signal;HPM_P1;HPM_P2
2023/06/22 00:00:09;;;;;;;34.10;25.63;;;20.50;99.90;;;;;;5070425;28;20267;-85
2023/06/22 00:02:36;;;;;;;32.93;25.17;;;20.50;99.90;;;;;;5070445;28;20209;-85
2023/06/22 00:05:03;;;;;;;33.13;26.50;;;20.40;99.90;;;;;;5071294;28;20575;-86
2023/06/22 00:07:30;;;;;;;33.53;26.27;;;20.40;99.90;;;;;;5053493;28;20195;-85
2023/06/22 00:09:57;;;;;;;34.97;26.87;;;20.40;99.90;;;;;;5070018;28;20295;-85
2023/06/22 00:12:24;;;;;;;33.23;26.40;;;20.30;99.90;;;;;;5072688;28;20198;-85
2023/06/22 00:14:51;;;;;;;33.87;26.23;;;20.30;99.90;;;;;;5073385;28;20242;-85
2023/06/22 00:17:19;;;;;;;32.57;25.43;;;20.30;99.90;;;;;;5057262;28;20236;-84
2023/06/22 00:19:47;;;;;;;34.13;25.90;;;20.30;99.90;;;;;;5074670;28;20273;-85
2023/06/22 00:22:14;;;;;;;32.00;25.77;;;20.30;99.90;;;;;;5074981;28;20289;-85
2023/06/22 00:24:41;;;;;;;34.43;26.33;;;20.30;99.90;;;;;;5056765;28;20265;-84
2023/06/22 00:27:08;;;;;;;33.27;25.53;;;20.30;99.90;;;;;;5057052;28;20586;-84
2023/06/22 00:29:35;;;;;;;34.23;26.13;;;20.30;99.90;;;;;;5074591;28;20193;-84
2023/06/22 00:32:03;;;;;;;34.33;26.40;;;20.30;99.90;;;;;;5073267;28;20198;-84
2023/06/22 00:34:30;;;;;;;35.83;25.70;;;20.30;99.90;;;;;;5073086;28;20194;-84
2023/06/22 00:36:57;;;;;;;32.70;25.73;;;20.30;99.90;;;;;;5073155;28;20198;-85
2023/06/22 00:39:24;;;;;;;35.60;27.97;;;20.20;99.90;;;;;;5073534;28;20287;-85
2023/06/22 00:41:51;;;;;;;32.47;26.23;;;20.20;99.90;;;;;;5073002;28;20222;-85
2023/06/22 00:44:18;;;;;;;32.87;26.57;;;20.20;99.90;;;;;;5073151;28;20272;-84
2023/06/22 00:46:45;;;;;;;34.23;27.53;;;20.20;99.90;;;;;;5072808;28;20745;-85
2023/06/22 00:49:12;;;;;;;34.17;27.30;;;20.10;99.90;;;;;;5056493;28;20201;-85
2023/06/22 00:51:39;;;;;;;36.20;26.77;;;20.10;99.90;;;;;;5073044;28;20325;-85
2023/06/22 00:54:06;;;;;;;31.50;26.17;;;20.10;99.90;;;;;;5074529;28;20189;-85
2023/06/22 00:56:37;;;;;;;33.90;26.90;;;20.10;99.90;;;;;;5073984;28;20357;-85
2023/06/22 00:59:04;;;;;;;35.60;26.43;;;20.10;99.90;;;;;;5072912;28;20181;-85
2023/06/22 01:01:32;;;;;;;32.93;26.10;;;20.00;99.90;;;;;;5074286;28;20653;-85
2023/06/22 01:04:00;;;;;;;33.63;26.07;;;20.00;99.90;;;;;;5072733;28;20190;-85
2023/06/22 01:06:37;;;;;;;32.07;26.00;;;20.00;99.90;;;;;;5072469;28;20218;-85
2023/06/22 01:09:39;;;;;;;33.80;26.67;;;20.00;99.90;;;;;;5072604;28;20614;-85
2023/06/22 01:12:08;;;;;;;34.60;27.20;;;19.90;99.90;;;;;;5071399;28;20198;-85
2023/06/22 01:14:43;;;;;;;35.43;27.33;;;19.90;99.90;;;;;;5038068;28;20758;-85
2023/06/22 01:17:12;;;;;;;35.93;27.13;;;19.90;99.90;;;;;;5054793;28;20202;-85
2023/06/22 01:19:57;;;;;;;35.90;27.00;;;19.80;99.90;;;;;;5054500;28;20672;-85
2023/06/22 01:22:29;;;;;;;35.60;27.03;;;19.80;99.90;;;;;;5054518;28;20198;-86
2023/06/22 01:25:26;;;;;;;35.67;27.40;;;19.80;99.90;;;;;;5071382;28;20624;-86
2023/06/22 01:28:02;;;;;;;33.67;26.80;;;19.80;99.90;;;;;;5071439;28;20190;-85
2023/06/22 01:30:31;;;;;;;36.97;27.50;;;19.80;99.90;;;;;;5054350;28;20225;-85
2023/06/22 01:33:01;;;;;;;35.87;28.10;;;19.80;99.90;;;;;;5037587;28;20755;-87
2023/06/22 01:35:29;;;;;;;37.43;27.27;;;19.80;99.90;;;;;;5037547;28;20368;-85
2023/06/22 01:37:56;;;;;;;34.43;26.57;;;19.80;99.90;;;;;;5071001;28;20196;-85
2023/06/22 01:40:24;;;;;;;36.83;28.40;;;19.80;99.90;;;;;;5070782;28;20206;-85
2023/06/22 01:42:52;;;;;;;34.67;26.80;;;19.80;99.90;;;;;;5053949;28;20264;-86
2023/06/22 01:45:19;;;;;;;33.13;26.57;;;19.80;99.90;;;;;;5070712;28;20289;-85
2023/06/22 01:47:47;;;;;;;36.40;27.70;;;19.80;99.90;;;;;;5071301;28;20256;-85
2023/06/22 01:50:14;;;;;;;34.47;27.00;;;19.80;99.90;;;;;;5071885;28;20217;-86
2023/06/22 01:52:41;;;;;;;38.80;29.27;;;19.80;99.90;;;;;;5072915;28;20194;-86
2023/06/22 01:55:08;;;;;;;37.13;29.13;;;19.70;99.90;;;;;;5071425;28;20301;-85
2023/06/22 01:57:36;;;;;;;36.73;29.20;;;19.80;99.90;;;;;;5072685;28;20190;-86
2023/06/22 02:00:07;;;;;;;39.53;28.77;;;19.80;99.90;;;;;;5071844;28;20217;-86
2023/06/22 02:02:39;;;;;;;36.80;29.20;;;19.80;99.90;;;;;;5071795;28;20197;-86
2023/06/22 02:05:09;;;;;;;38.63;30.13;;;19.80;99.90;;;;;;5071796;28;20218;-86
2023/06/22 02:08:00;;;;;;;41.67;30.27;;;19.80;99.90;;;;;;5071428;28;20288;-86
2023/06/22 02:10:28;;;;;;;41.33;31.07;;;19.90;99.90;;;;;;5072612;28;20252;-86
2023/06/22 02:12:57;;;;;;;42.37;30.37;;;19.90;99.90;;;;;;5054805;28;20198;-84
2023/06/22 02:15:25;;;;;;;43.30;31.67;;;19.90;99.90;;;;;;5072526;28;20295;-85
2023/06/22 02:17:52;;;;;;;41.87;31.57;;;19.90;99.90;;;;;;5071396;28;20244;-85
2023/06/22 02:20:20;;;;;;;45.23;32.43;;;19.90;99.90;;;;;;5072701;28;20305;-85
2023/06/22 02:22:47;;;;;;;40.00;30.50;;;19.90;99.90;;;;;;5071058;28;20688;-85
2023/06/22 02:25:14;;;;;;;43.30;32.33;;;19.90;99.90;;;;;;5071276;28;20743;-85
2023/06/22 02:27:41;;;;;;;44.40;32.27;;;19.90;99.90;;;;;;5071171;28;20198;-85
2023/06/22 02:30:09;;;;;;;48.00;34.03;;;19.80;99.90;;;;;;5071012;28;20217;-85
2023/06/22 02:32:36;;;;;;;45.10;33.93;;;19.80;99.90;;;;;;5072345;28;20649;-85
2023/06/22 02:35:04;;;;;;;47.73;34.73;;;19.80;99.90;;;;;;5053831;28;20221;-85
2023/06/22 02:37:32;;;;;;;48.93;35.80;;;19.70;99.90;;;;;;5054784;28;20580;-86
2023/06/22 02:39:59;;;;;;;57.27;37.30;;;19.70;99.90;;;;;;5072552;28;20221;-85
2023/06/22 02:42:25;;;;;;;58.83;36.93;;;19.70;99.90;;;;;;5072216;28;20201;-85
2023/06/22 02:44:52;;;;;;;59.43;39.60;;;19.80;99.90;;;;;;5070806;28;20218;-85
2023/06/22 02:47:19;;;;;;;58.20;38.80;;;19.70;99.90;;;;;;5070849;28;20222;-85
2023/06/22 02:49:46;;;;;;;59.13;39.43;;;19.70;99.90;;;;;;5070728;28;20206;-85
2023/06/22 02:52:13;;;;;;;61.77;41.47;;;19.80;99.90;;;;;;5071114;28;20292;-85
2023/06/22 02:54:40;;;;;;;65.37;41.67;;;19.70;99.90;;;;;;5072087;28;20186;-85
2023/06/22 02:57:13;;;;;;;65.57;41.40;;;19.80;99.90;;;;;;5054081;28;20308;-86
2023/06/22 02:59:41;;;;;;;69.33;42.73;;;19.80;99.90;;;;;;5072053;28;20631;-85
2023/06/22 03:02:09;;;;;;;69.33;43.13;;;19.80;99.90;;;;;;5070865;28;20217;-86
2023/06/22 03:04:36;;;;;;;71.73;43.97;;;19.80;99.90;;;;;;5070728;28;20190;-85
2023/06/22 03:07:03;;;;;;;85.93;48.27;;;19.90;99.90;;;;;;5054114;28;20231;-86
2023/06/22 03:09:32;;;;;;;78.33;45.23;;;19.80;99.90;;;;;;5054299;28;20277;-85
2023/06/22 03:11:59;;;;;;;75.33;45.93;;;19.80;99.90;;;;;;5070742;28;20561;-85
2023/06/22 03:14:26;;;;;;;78.63;47.60;;;19.80;99.90;;;;;;5070593;28;20189;-86
2023/06/22 03:16:53;;;;;;;86.87;50.67;;;19.70;99.90;;;;;;5072013;28;20559;-85
2023/06/22 03:19:21;;;;;;;82.83;49.20;;;19.70;99.90;;;;;;5070607;28;20649;-86
2023/06/22 03:21:48;;;;;;;78.97;47.80;;;19.70;99.90;;;;;;5054212;28;20634;-85
2023/06/22 03:24:15;;;;;;;83.17;49.20;;;19.80;99.90;;;;;;5070650;28;20601;-85
2023/06/22 03:26:42;;;;;;;80.80;48.50;;;19.70;99.90;;;;;;5071763;28;20210;-85
2023/06/22 03:29:09;;;;;;;82.53;49.23;;;19.70;99.90;;;;;;5070732;28;20194;-85
2023/06/22 03:31:36;;;;;;;75.57;47.53;;;19.80;99.90;;;;;;5054091;28;20302;-84
2023/06/22 03:34:04;;;;;;;73.43;47.10;;;19.80;99.90;;;;;;5070491;28;20202;-85
2023/06/22 03:36:31;;;;;;;76.87;48.13;;;19.90;99.90;;;;;;5070331;28;20284;-85
2023/06/22 03:38:58;;;;;;;77.90;48.37;;;19.90;99.90;;;;;;5053935;28;20384;-85
2023/06/22 03:41:25;;;;;;;75.83;48.47;;;19.80;99.90;;;;;;5053797;28;20242;-86
2023/06/22 03:43:52;;;;;;;72.90;45.00;;;19.70;99.90;;;;;;5070398;28;20194;-85
2023/06/22 03:46:20;;;;;;;68.40;45.17;;;19.80;99.90;;;;;;5077798;28;20234;-87
2023/06/22 03:48:47;;;;;;;72.20;45.53;;;19.90;99.90;;;;;;5078013;28;20198;-85
2023/06/22 03:51:14;;;;;;;72.27;44.57;;;19.90;99.90;;;;;;5077337;28;20228;-85
2023/06/22 03:53:41;;;;;;;65.30;43.20;;;20.00;99.90;;;;;;5095890;28;20243;-84
2023/06/22 03:56:08;;;;;;;69.87;45.60;;;20.10;99.90;;;;;;5077213;28;20256;-84
2023/06/22 03:58:36;;;;;;;65.67;42.10;;;20.20;99.90;;;;;;5077279;28;20202;-84
2023/06/22 04:01:03;;;;;;;67.27;43.77;;;20.10;99.90;;;;;;5077205;28;20277;-84
2023/06/22 04:03:30;;;;;;;64.47;42.77;;;20.10;99.90;;;;;;5060976;28;20652;-85
2023/06/22 04:05:57;;;;;;;60.70;41.30;;;20.10;99.90;;;;;;5077257;28;20217;-84
2023/06/22 04:08:24;;;;;;;60.83;40.33;;;20.20;99.90;;;;;;5077252;28;20190;-84
2023/06/22 04:10:51;;;;;;;62.63;41.73;;;20.30;99.90;;;;;;5077164;28;20688;-85
2023/06/22 04:13:18;;;;;;;64.90;42.10;;;20.30;99.90;;;;;;5095540;28;20223;-84
2023/06/22 04:15:45;;;;;;;57.90;40.37;;;20.30;99.90;;;;;;5076750;28;20308;-84
2023/06/22 04:18:13;;;;;;;57.43;38.97;;;20.20;99.90;;;;;;5076827;28;20194;-84
2023/06/22 04:20:40;;;;;;;55.67;37.70;;;20.30;99.90;;;;;;5076959;28;20220;-84
2023/06/22 04:23:07;;;;;;;52.10;36.80;;;20.40;99.90;;;;;;5076768;28;20193;-84
2023/06/22 04:25:34;;;;;;;58.33;38.67;;;20.40;99.90;;;;;;5076645;28;20300;-86
2023/06/22 04:28:03;;;;;;;59.10;38.97;;;20.50;99.90;;;;;;5095145;28;20190;-83
2023/06/22 04:30:31;;;;;;;56.73;37.80;;;20.30;99.90;;;;;;5076522;28;20214;-84
2023/06/22 04:32:59;;;;;;;54.90;36.00;;;20.40;99.90;;;;;;5076753;28;20227;-83
2023/06/22 04:35:28;;;;;;;55.80;37.20;;;20.50;99.90;;;;;;5094711;28;20296;-84
2023/06/22 04:37:58;;;;;;;53.90;36.07;;;20.50;99.90;;;;;;5076323;28;20260;-84
2023/06/22 04:40:25;;;;;;;55.03;36.30;;;20.60;99.90;;;;;;5076379;28;20217;-84
2023/06/22 04:42:53;;;;;;;51.97;35.00;;;20.60;99.90;;;;;;5076246;28;20194;-85
2023/06/22 04:45:21;;;;;;;49.13;34.20;;;20.60;99.90;;;;;;5094759;28;20214;-84
2023/06/22 04:47:48;;;;;;;48.10;34.07;;;20.80;99.90;;;;;;5056436;28;20249;-83
2023/06/22 04:50:17;;;;;;;50.83;33.63;;;20.90;99.90;;;;;;5072895;28;20254;-86
2023/06/22 04:52:45;;;;;;;46.23;32.37;;;21.10;99.90;;;;;;5073135;28;20194;-87
2023/06/22 04:55:17;;;;;;;47.43;33.60;;;21.10;99.90;;;;;;5072998;28;20224;-84
2023/06/22 04:57:48;;;;;;;46.73;31.93;;;21.00;99.90;;;;;;5055791;28;20214;-83
2023/06/22 05:00:19;;;;;;;46.73;32.10;;;21.00;99.90;;;;;;5072894;28;20576;-84
2023/06/22 05:02:46;;;;;;;45.00;31.90;;;21.10;99.90;;;;;;5074157;28;20201;-83
2023/06/22 05:05:15;;;;;;;48.63;34.13;;;21.20;99.90;;;;;;5056045;28;20260;-84
2023/06/22 05:07:48;;;;;;;45.50;32.97;;;21.00;99.90;;;;;;5055933;28;20194;-83
2023/06/22 05:10:15;;;;;;;49.47;33.73;;;21.00;99.90;;;;;;5074010;28;20261;-83
2023/06/22 05:12:42;;;;;;;48.50;33.80;;;21.00;99.90;;;;;;5055897;28;20191;-83
2023/06/22 05:15:10;;;;;;;46.07;31.33;;;21.00;99.90;;;;;;5072318;28;20661;-86
2023/06/22 05:17:42;;;;;;;46.73;33.20;;;21.10;99.90;;;;;;5072218;28;20226;-87
2023/06/22 05:20:11;;;;;;;43.37;30.03;;;21.00;99.90;;;;;;5073597;28;20760;-84
2023/06/22 05:22:39;;;;;;;46.53;31.53;;;21.10;99.90;;;;;;5073518;28;20209;-84
2023/06/22 05:25:09;;;;;;;43.70;30.97;;;21.20;99.90;;;;;;5072128;28;20381;-84
2023/06/22 05:27:39;;;;;;;42.83;30.60;;;21.20;99.90;;;;;;5073506;28;20313;-84
2023/06/22 05:30:07;;;;;;;44.20;30.80;;;21.40;99.90;;;;;;5073405;28;20210;-84
2023/06/22 05:32:35;;;;;;;47.37;31.27;;;21.30;99.90;;;;;;5055509;28;20226;-84
2023/06/22 05:35:06;;;;;;;40.70;28.77;;;21.10;99.90;;;;;;5055489;28;20217;-84
2023/06/22 05:37:32;;;;;;;45.03;29.33;;;21.20;99.90;;;;;;5072145;28;20230;-84
2023/06/22 05:39:59;;;;;;;41.27;28.60;;;21.40;99.90;;;;;;5071799;28;20701;-84
2023/06/22 05:42:27;;;;;;;43.60;30.33;;;21.60;99.90;;;;;;5072013;28;20183;-84
2023/06/22 05:44:54;;;;;;;45.43;29.73;;;21.40;99.90;;;;;;5071737;28;20210;-83
2023/06/22 05:47:22;;;;;;;40.93;29.43;;;21.30;99.90;;;;;;5071535;28;20237;-84
2023/06/22 05:49:50;;;;;;;41.43;28.27;;;21.40;99.90;;;;;;5071623;28;20214;-84
2023/06/22 05:52:17;;;;;;;39.97;28.70;;;21.50;99.90;;;;;;5072054;28;20229;-85
2023/06/22 05:54:44;;;;;;;38.60;28.00;;;21.70;99.90;;;;;;5054978;28;20194;-86
2023/06/22 05:57:11;;;;;;;37.83;27.10;;;21.80;99.90;;;;;;5072782;28;20852;-85
2023/06/22 05:59:38;;;;;;;38.78;27.75;;;21.70;99.90;;;;;;5056826;28;20522;-86
2023/06/22 06:02:05;;;;;;;37.23;26.13;;;21.60;99.90;;;;;;5054937;28;20320;-85
2023/06/22 06:04:33;;;;;;;36.20;25.60;;;21.60;99.90;;;;;;5071316;28;20263;-84
2023/06/22 06:07:01;;;;;;;37.53;26.50;;;21.80;99.90;;;;;;5071616;28;20285;-84
2023/06/22 06:09:28;;;;;;;36.67;26.60;;;21.70;99.90;;;;;;5071930;28;20269;-85
2023/06/22 06:11:55;;;;;;;34.22;25.05;;;21.70;99.90;;;;;;5071399;28;20587;-84
2023/06/22 06:14:23;;;;;;;37.90;26.50;;;21.80;99.90;;;;;;5054820;28;20650;-84
2023/06/22 06:16:50;;;;;;;38.90;27.13;;;22.00;99.90;;;;;;5071140;28;20225;-84
2023/06/22 06:19:17;;;;;;;35.40;24.70;;;21.80;99.90;;;;;;5071154;28;20252;-84
2023/06/22 06:21:44;;;;;;;33.17;23.10;;;21.70;99.90;;;;;;5071055;28;20554;-86
2023/06/22 06:24:12;;;;;;;36.27;25.70;;;21.90;99.90;;;;;;5072324;28;20685;-84
2023/06/22 06:26:39;;;;;;;40.07;27.57;;;21.90;99.90;;;;;;5072345;28;20213;-84
2023/06/22 06:29:09;;;;;;;35.97;26.63;;;22.00;99.90;;;;;;5071073;28;20198;-84
2023/06/22 06:31:36;;;;;;;36.67;26.37;;;22.00;99.90;;;;;;5072351;28;20664;-85
2023/06/22 06:34:03;;;;;;;35.27;25.33;;;21.90;99.90;;;;;;5071097;28;20196;-84
2023/06/22 06:36:33;;;;;;;33.97;24.20;;;22.00;99.90;;;;;;5054184;28;20222;-86
2023/06/22 06:39:00;;;;;;;34.97;24.63;;;22.10;99.90;;;;;;5072230;28;20236;-86
2023/06/22 06:41:27;;;;;;;35.07;25.63;;;22.00;99.90;;;;;;5072372;28;20214;-85
2023/06/22 06:43:54;;;;;;;34.10;23.58;;;22.10;99.90;;;;;;5070641;28;20741;-84
2023/06/22 06:46:21;;;;;;;32.53;24.03;;;22.10;99.90;;;;;;5070560;28;20230;-85
2023/06/22 06:48:48;;;;;;;35.47;24.07;;;22.10;99.90;;;;;;5054339;28;20210;-85
2023/06/22 06:51:15;;;;;;;35.30;25.17;;;22.20;99.90;;;;;;5070799;28;20214;-86
2023/06/22 06:53:42;;;;;;;30.33;21.63;;;22.30;99.90;;;;;;5054333;28;20249;-86
2023/06/22 06:56:10;;;;;;;32.07;23.83;;;22.60;99.90;;;;;;5072097;28;20206;-85
2023/06/22 06:58:42;;;;;;;33.93;23.50;;;22.40;99.90;;;;;;5070801;28;20190;-85
2023/06/22 07:01:09;;;;;;;29.30;22.23;;;22.50;99.90;;;;;;5070827;28;20264;-83
2023/06/22 07:03:36;;;;;;;32.97;23.03;;;22.70;99.90;;;;;;5072054;28;20187;-84
2023/06/22 07:06:03;;;;;;;28.85;22.23;;;22.80;99.90;;;;;;5070586;28;20210;-85
2023/06/22 07:08:30;;;;;;;29.23;20.87;;;23.10;99.90;;;;;;5071900;28;20194;-84
2023/06/22 07:10:57;;;;;;;29.58;20.80;;;23.20;99.90;;;;;;5070354;28;20240;-84
2023/06/22 07:13:24;;;;;;;27.42;20.48;;;23.30;99.90;;;;;;5070498;28;20198;-84
2023/06/22 07:15:51;;;;;;;25.23;19.10;;;23.30;99.90;;;;;;5071842;28;20801;-83
2023/06/22 07:18:18;;;;;;;26.70;18.90;;;23.60;99.90;;;;;;5070582;28;20314;-84
2023/06/22 07:20:45;;;;;;;28.40;20.05;;;23.60;99.90;;;;;;5073664;28;20202;-84
2023/06/22 07:23:12;;;;;;;25.17;20.08;;;23.60;99.90;;;;;;5057824;28;20221;-84
2023/06/22 07:25:39;;;;;;;24.83;18.15;;;23.60;99.90;;;;;;5074396;28;20614;-85
2023/06/22 07:28:07;;;;;;;25.55;18.83;;;23.90;99.90;;;;;;5075858;28;20783;-85
2023/06/22 07:30:34;;;;;;;25.90;19.25;;;24.00;99.90;;;;;;5075722;28;20202;-85
2023/06/22 07:33:03;;;;;;;25.30;18.50;;;24.10;99.90;;;;;;5075873;28;20200;-85
2023/06/22 07:35:31;;;;;;;22.60;17.27;;;23.80;99.90;;;;;;5074197;28;20236;-83
2023/06/22 07:37:59;;;;;;;23.10;16.60;;;23.90;99.90;;;;;;5057756;28;20221;-84
2023/06/22 07:40:31;;;;;;;19.38;14.80;;;24.00;99.90;;;;;;5074246;28;20305;-85
2023/06/22 07:42:58;;;;;;;19.15;15.27;;;24.10;99.90;;;;;;5074451;28;20720;-84
2023/06/22 07:45:25;;;;;;;18.77;13.43;;;24.50;99.90;;;;;;5074164;28;20225;-84
2023/06/22 07:47:52;;;;;;;16.90;13.00;;;24.50;99.90;;;;;;5073962;28;20226;-86
2023/06/22 07:50:19;;;;;;;14.95;11.90;;;24.40;99.90;;;;;;5074199;28;20701;-83
2023/06/22 07:52:47;;;;;;;15.85;11.05;;;24.40;99.90;;;;;;5074093;28;20244;-84
2023/06/22 07:55:14;;;;;;;13.82;11.25;;;24.50;99.90;;;;;;5057143;28;20241;-84
2023/06/22 07:57:42;;;;;;;14.90;11.07;;;24.80;99.90;;;;;;5073995;28;20313;-82
2023/06/22 08:00:16;;;;;;;14.57;9.82;;;24.80;99.90;;;;;;5073596;28;20320;-83
2023/06/22 08:02:46;;;;;;;11.98;9.68;;;24.80;99.90;;;;;;5057439;28;20243;-83
2023/06/22 08:05:15;;;;;;;12.38;9.13;;;25.00;99.90;;;;;;5057110;28;20213;-84
2023/06/22 08:07:49;;;;;;;11.05;8.45;;;24.80;99.90;;;;;;5058000;28;20293;-84
2023/06/22 08:10:16;;;;;;;10.48;8.15;;;24.90;99.90;;;;;;5073687;28;20210;-86
2023/06/22 08:12:43;;;;;;;10.48;7.65;;;24.70;99.90;;;;;;5057004;28;20620;-85
2023/06/22 08:15:11;;;;;;;9.90;8.38;;;24.80;99.90;;;;;;5075101;28;20206;-85
2023/06/22 08:17:39;;;;;;;9.65;7.53;;;24.70;99.90;;;;;;5056782;28;20214;-86
2023/06/22 08:20:13;;;;;;;11.45;8.45;;;24.80;99.90;;;;;;5073448;28;20218;-82
2023/06/22 08:22:42;;;;;;;11.07;7.85;;;24.60;99.90;;;;;;5073540;28;20190;-84
2023/06/22 08:25:09;;;;;;;12.00;8.48;;;24.70;99.90;;;;;;5073311;28;20228;-83
2023/06/22 08:27:37;;;;;;;9.85;7.28;;;25.20;99.90;;;;;;5073314;28;20195;-82
2023/06/22 08:30:05;;;;;;;9.20;7.32;;;26.00;99.90;;;;;;5056661;28;20229;-84
2023/06/22 08:32:34;;;;;;;8.70;7.30;;;26.20;99.90;;;;;;5072709;28;20202;-83
2023/06/22 08:35:01;;;;;;;13.55;7.82;;;26.50;99.90;;;;;;5056538;28;20241;-85
2023/06/22 08:37:31;;;;;;;10.02;7.25;;;26.80;99.90;;;;;;5073046;28;20312;-85
2023/06/22 08:40:08;;;;;;;10.18;7.20;;;27.40;99.90;;;;;;5074355;28;20236;-85
2023/06/22 08:42:36;;;;;;;9.57;6.85;;;28.10;99.90;;;;;;5073230;28;20186;-84
2023/06/22 08:45:04;;;;;;;8.40;6.85;;;28.70;99.90;;;;;;5073262;28;20210;-84
2023/06/22 08:47:31;;;;;;;10.27;6.38;;;28.50;99.90;;;;;;5072867;28;20241;-84
2023/06/22 08:49:58;;;;;;;11.18;6.75;;;28.50;99.90;;;;;;5074218;28;20249;-81
2023/06/22 08:52:25;;;;;;;8.82;6.63;;;28.50;99.90;;;;;;5073196;28;20296;-84
2023/06/22 08:54:52;;;;;;;33.70;8.38;;;28.80;99.90;;;;;;5074149;28;20252;-83
2023/06/22 08:57:21;;;;;;;39.58;9.95;;;29.00;99.90;;;;;;5056259;28;20226;-83
2023/06/22 08:59:48;;;;;;;13.30;6.18;;;29.30;99.90;;;;;;5072584;28;20229;-84
2023/06/22 09:02:15;;;;;;;9.10;5.95;;;29.80;99.90;;;;;;5056293;28;20198;-84
2023/06/22 09:04:42;;;;;;;11.05;5.85;;;29.80;99.90;;;;;;5056072;28;20197;-84
2023/06/22 09:07:09;;;;;;;10.32;5.25;;;29.90;99.90;;;;;;5074214;28;20356;-83
2023/06/22 09:09:36;;;;;;;6.53;5.03;;;29.60;99.90;;;;;;5073743;28;20194;-85
2023/06/22 09:12:04;;;;;;;6.93;4.75;;;29.70;99.90;;;;;;5072680;28;20351;-85
2023/06/22 09:14:31;;;;;;;5.30;4.68;;;29.40;99.90;;;;;;5072358;28;20241;-85
2023/06/22 09:16:58;;;;;;;6.97;4.60;;;29.70;99.90;;;;;;5072523;28;20602;-83
2023/06/22 09:19:25;;;;;;;9.18;4.88;;;30.00;99.90;;;;;;5072429;28;20198;-83
2023/06/22 09:21:52;;;;;;;7.45;4.47;;;29.90;99.90;;;;;;5072178;28;20627;-81
2023/06/22 09:24:19;;;;;;;5.95;4.47;;;28.80;99.90;;;;;;5072464;28;20260;-82
2023/06/22 09:26:46;;;;;;;6.32;4.03;;;28.90;99.90;;;;;;5073529;28;20214;-82
2023/06/22 09:29:13;;;;;;;4.95;4.00;;;28.70;99.90;;;;;;5072408;28;20241;-82
2023/06/22 09:31:40;;;;;;;7.20;4.30;;;28.90;99.90;;;;;;5055404;28;20222;-82
2023/06/22 09:34:08;;;;;;;5.80;4.07;;;29.50;99.90;;;;;;5055576;28;20209;-82
2023/06/22 09:36:35;;;;;;;6.28;3.75;;;29.30;99.90;;;;;;5055410;28;20701;-83
2023/06/22 09:39:05;;;;;;;6.05;4.07;;;29.00;99.90;;;;;;5071922;28;20247;-82
2023/06/22 09:41:32;;;;;;;7.25;4.88;;;28.60;99.90;;;;;;5072101;28;20218;-83
2023/06/22 09:43:59;;;;;;;6.20;4.28;;;29.20;99.90;;;;;;5071816;28;20236;-82
2023/06/22 09:46:27;;;;;;;5.22;4.10;;;29.80;99.90;;;;;;5072101;28;20694;-81
2023/06/22 09:48:55;;;;;;;5.07;3.97;;;30.30;99.90;;;;;;5071811;28;20198;-82
2023/06/22 09:51:23;;;;;;;6.38;4.10;;;30.00;99.90;;;;;;5071599;28;20614;-81
2023/06/22 09:53:52;;;;;;;7.05;4.03;;;30.50;99.90;;;;;;5072931;28;20192;-81
2023/06/22 09:56:19;;;;;;;6.60;4.03;;;30.90;99.90;;;;;;5071508;28;20213;-81
2023/06/22 09:58:47;;;;;;;6.25;3.92;;;30.90;99.90;;;;;;5071490;28;20210;-80
2023/06/22 10:01:17;;;;;;;8.60;4.25;;;30.80;99.90;;;;;;5071462;28;20220;-83
2023/06/22 10:03:44;;;;;;;4.95;3.88;;;31.10;99.90;;;;;;5071387;28;20611;-79
2023/06/22 10:06:11;;;;;;;5.95;4.18;;;31.40;99.90;;;;;;5072644;28;20578;-80
2023/06/22 10:08:39;;;;;;;6.60;4.18;;;31.70;99.90;;;;;;5071694;28;20293;-81
2023/06/22 10:11:06;;;;;;;6.88;4.13;;;31.60;99.90;;;;;;5071283;28;20284;-81
2023/06/22 10:13:33;;;;;;;6.63;4.40;;;31.70;99.90;;;;;;5072915;28;20576;-81
2023/06/22 10:16:00;;;;;;;4.55;3.85;;;32.30;98.90;;;;;;5072560;28;20214;-82
2023/06/22 10:18:27;;;;;;;5.20;3.67;;;31.90;98.40;;;;;;5071028;28;20222;-81
2023/06/22 10:20:54;;;;;;;5.80;3.92;;;32.30;98.60;;;;;;5038134;28;20218;-81
2023/06/22 10:23:22;;;;;;;6.32;4.25;;;32.30;97.80;;;;;;5054313;28;20202;-81
2023/06/22 10:25:49;;;;;;;6.95;4.30;;;32.00;96.20;;;;;;5054518;28;20299;-81
2023/06/22 10:28:16;;;;;;;18.50;5.68;;;31.50;97.70;;;;;;5071008;28;20229;-82
2023/06/22 10:30:44;;;;;;;8.35;4.40;;;31.60;96.60;;;;;;5070960;28;20221;-82
2023/06/22 10:33:12;;;;;;;6.00;4.10;;;31.90;98.10;;;;;;5054482;28;20190;-81
2023/06/22 10:35:39;;;;;;;13.45;4.65;;;32.00;96.00;;;;;;5072233;28;20297;-81
2023/06/22 10:38:09;;;;;;;5.78;4.40;;;32.20;96.90;;;;;;5054248;28;20226;-80
2023/06/22 10:40:36;;;;;;;7.53;4.55;;;33.00;96.30;;;;;;5072319;28;20216;-82
2023/06/22 10:43:03;;;;;;;7.07;4.13;;;32.50;95.00;;;;;;5071108;28;20240;-82
2023/06/22 10:45:30;;;;;;;5.75;3.83;;;32.90;94.70;;;;;;5070858;28;20237;-82
2023/06/22 10:47:57;;;;;;;7.10;4.30;;;32.60;94.50;;;;;;5070787;28;20584;-82
2023/06/22 10:50:25;;;;;;;5.97;4.00;;;32.90;94.80;;;;;;5071939;28;20198;-83
2023/06/22 10:52:53;;;;;;;7.63;4.40;;;33.20;94.30;;;;;;5070743;28;20285;-82
2023/06/22 10:55:22;;;;;;;6.03;4.30;;;32.80;95.20;;;;;;5070204;28;20297;-83
2023/06/22 10:57:49;;;;;;;8.02;4.60;;;33.30;94.80;;;;;;5072380;28;20218;-83
2023/06/22 11:00:16;;;;;;;6.13;4.25;;;33.70;94.20;;;;;;5071834;28;20197;-81
2023/06/22 11:02:44;;;;;;;7.50;4.50;;;33.90;92.90;;;;;;5054097;28;20244;-81
2023/06/22 11:05:11;;;;;;;7.32;4.65;;;34.20;93.00;;;;;;5071793;28;20297;-82
2023/06/22 11:07:42;;;;;;;5.60;4.35;;;34.60;93.70;;;;;;5070561;28;20210;-82
2023/06/22 11:10:12;;;;;;;5.32;4.35;;;34.50;90.40;;;;;;5071656;28;20210;-82
2023/06/22 11:12:39;;;;;;;14.05;5.38;;;33.40;90.60;;;;;;5054194;28;20202;-82
2023/06/22 11:15:06;;;;;;;6.18;4.47;;;33.00;92.10;;;;;;5071786;28;20202;-82
2023/06/22 11:17:33;;;;;;;7.05;4.50;;;33.00;91.20;;;;;;5071714;28;20759;-82
2023/06/22 11:20:01;;;;;;;5.25;4.43;;;33.50;91.10;;;;;;5071642;28;20216;-81
2023/06/22 11:22:29;;;;;;;6.97;4.22;;;34.00;92.70;;;;;;5070448;28;20201;-81
2023/06/22 11:24:57;;;;;;;5.40;3.70;;;34.60;88.50;;;;;;5070547;28;20214;-82
2023/06/22 11:27:24;;;;;;;5.78;3.97;;;34.90;85.90;;;;;;5070320;28;20623;-81
2023/06/22 11:29:52;;;;;;;7.47;4.22;;;34.30;86.30;;;;;;5071515;28;20210;-82
2023/06/22 11:32:20;;;;;;;5.90;4.15;;;34.00;86.50;;;;;;5037716;28;20202;-83
2023/06/22 11:34:47;;;;;;;6.63;3.90;;;34.90;85.50;;;;;;5070368;28;20665;-81
2023/06/22 11:37:13;;;;;;;5.68;4.63;;;35.10;82.70;;;;;;5070245;28;20688;-81
2023/06/22 11:39:41;;;;;;;5.32;3.88;;;35.10;83.40;;;;;;5069831;28;20211;-79
2023/06/22 11:42:19;;;;;;;8.48;4.10;;;34.90;83.90;;;;;;5055342;28;20198;-81
2023/06/22 11:44:46;;;;;;;5.70;4.22;;;35.10;81.90;;;;;;5071634;28;20186;-81
2023/06/22 11:47:13;;;;;;;5.60;4.50;;;35.10;81.70;;;;;;5069716;28;20257;-81
2023/06/22 11:49:41;;;;;;;8.02;4.53;;;35.50;81.40;;;;;;5071285;28;20194;-81
2023/06/22 11:52:08;;;;;;;6.82;4.35;;;34.90;81.20;;;;;;5070237;28;20202;-80
2023/06/22 11:54:35;;;;;;;8.48;4.00;;;34.50;81.20;;;;;;5069851;28;20297;-81
2023/06/22 11:57:02;;;;;;;6.85;4.10;;;34.50;80.70;;;;;;5069972;28;20218;-80
2023/06/22 11:59:29;;;;;;;6.15;4.35;;;35.40;79.80;;;;;;5069822;28;20221;-79
2023/06/22 12:01:58;;;;;;;6.05;4.18;;;35.50;78.20;;;;;;5071438;28;20190;-80
2023/06/22 12:04:25;;;;;;;7.07;4.50;;;35.30;78.90;;;;;;5070274;28;20194;-80
2023/06/22 12:06:52;;;;;;;5.43;3.90;;;35.60;79.00;;;;;;5071665;28;20297;-81
2023/06/22 12:09:19;;;;;;;6.03;3.70;;;36.20;76.00;;;;;;5073714;28;20612;-78
2023/06/22 12:11:46;;;;;;;7.95;4.30;;;36.50;73.10;;;;;;5074949;28;20273;-81
2023/06/22 12:14:13;;;;;;;5.90;4.03;;;36.00;70.80;;;;;;5057209;28;20252;-81
2023/06/22 12:16:40;;;;;;;6.28;4.30;;;36.30;72.00;;;;;;5073835;28;20226;-81
2023/06/22 12:19:07;;;;;;;6.75;4.80;;;35.50;74.20;;;;;;5073487;28;20226;-82
2023/06/22 12:21:34;;;;;;;5.88;4.15;;;35.10;74.40;;;;;;5056722;28;20623;-82
2023/06/22 12:24:01;;;;;;;7.13;4.43;;;34.80;76.60;;;;;;5073546;28;20197;-82
2023/06/22 12:26:28;;;;;;;7.18;4.15;;;34.70;76.30;;;;;;5073261;28;20214;-82
2023/06/22 12:28:55;;;;;;;6.00;4.20;;;35.20;75.00;;;;;;5073218;28;20194;-82
2023/06/22 12:31:22;;;;;;;5.45;3.90;;;35.80;74.70;;;;;;5056720;28;20255;-81
2023/06/22 12:33:49;;;;;;;6.85;4.43;;;36.10;74.50;;;;;;5073496;28;20251;-80
2023/06/22 12:36:16;;;;;;;5.75;4.47;;;35.90;72.70;;;;;;5073218;28;20226;-79